createdAt,value
2018-10-02T00:01:35.562Z,1.80
2018-10-02T00:04:04.153Z,1.33
2018-10-02T00:06:32.664Z,1.50
2018-10-02T00:09:01.237Z,1.60
2018-10-02T00:11:35.092Z,1.73
2018-10-02T00:14:08.925Z,1.63
2018-10-02T00:16:37.584Z,1.50
2018-10-02T00:19:06.328Z,1.57
2018-10-02T00:21:34.888Z,1.43
2018-10-02T00:24:03.421Z,1.30
2018-10-02T00:26:32.123Z,1.63
2018-10-02T00:29:00.670Z,1.20
2018-10-02T00:31:29.250Z,1.40
2018-10-02T00:33:58.881Z,1.40
2018-10-02T00:36:27.407Z,1.77
2018-10-02T00:38:55.971Z,1.40
2018-10-02T00:41:24.474Z,1.30
2018-10-02T00:43:53.073Z,1.60
2018-10-02T00:46:21.586Z,1.50
2018-10-02T00:48:50.732Z,1.37
2018-10-02T00:51:19.275Z,1.30
2018-10-02T00:53:47.808Z,1.40
2018-10-02T00:56:16.351Z,1.67
2018-10-02T00:58:44.927Z,1.50
2018-10-02T01:01:13.455Z,1.57
2018-10-02T01:03:41.986Z,1.57
2018-10-02T01:06:10.546Z,1.70
2018-10-02T01:08:39.091Z,1.70
2018-10-02T01:11:07.664Z,1.80
2018-10-02T01:13:36.219Z,1.60
2018-10-02T01:16:04.787Z,2.30
2018-10-02T01:18:33.588Z,2.10
2018-10-02T01:21:02.142Z,1.93
2018-10-02T01:23:30.914Z,1.97
2018-10-02T01:25:59.458Z,2.17
2018-10-02T01:28:27.995Z,2.27
2018-10-02T01:30:56.719Z,2.37
2018-10-02T01:33:25.364Z,2.23
2018-10-02T01:35:53.987Z,2.70
2018-10-02T01:38:22.517Z,2.73
2018-10-02T01:40:51.073Z,2.90
2018-10-02T01:43:19.817Z,2.73
2018-10-02T01:45:48.356Z,2.90
2018-10-02T01:48:16.900Z,2.60
2018-10-02T01:50:45.417Z,2.47
2018-10-02T01:53:13.977Z,2.27
2018-10-02T01:55:42.495Z,2.40
2018-10-02T01:58:11.039Z,2.10
2018-10-02T02:00:39.609Z,2.67
2018-10-02T02:03:08.152Z,2.40
2018-10-02T02:05:36.684Z,2.30
2018-10-02T02:08:05.328Z,2.07
2018-10-02T02:10:33.886Z,2.50
2018-10-02T02:13:02.436Z,2.40
2018-10-02T02:15:31.488Z,2.37
2018-10-02T02:18:00.052Z,2.80
2018-10-02T02:20:28.599Z,2.40
2018-10-02T02:22:57.167Z,2.20
2018-10-02T02:25:25.797Z,2.30
2018-10-02T02:27:54.368Z,2.20
2018-10-02T02:30:22.903Z,1.83
2018-10-02T02:32:51.481Z,2.40
2018-10-02T02:35:20.048Z,2.00
2018-10-02T02:37:48.598Z,2.00
2018-10-02T02:40:17.123Z,1.90
2018-10-02T02:42:45.656Z,2.40
2018-10-02T02:45:14.175Z,2.27
2018-10-02T02:47:47.871Z,2.13
2018-10-02T02:50:21.864Z,2.70
2018-10-02T02:52:57.230Z,2.47
2018-10-02T02:55:25.809Z,2.43
2018-10-02T02:57:54.448Z,2.20
2018-10-02T03:00:23.000Z,2.73
2018-10-02T03:02:51.573Z,2.30
2018-10-02T03:05:20.108Z,2.50
2018-10-02T03:07:48.711Z,2.33
2018-10-02T03:10:17.250Z,1.77
2018-10-02T03:12:45.801Z,1.60
2018-10-02T03:15:14.385Z,2.20
2018-10-02T03:17:42.976Z,2.07
2018-10-02T03:20:11.545Z,2.00
2018-10-02T03:22:40.196Z,2.00
2018-10-02T03:25:08.952Z,2.07
2018-10-02T03:27:37.518Z,1.93
2018-10-02T03:30:06.173Z,2.27
2018-10-02T03:32:34.703Z,1.90
2018-10-02T03:35:03.321Z,2.57
2018-10-02T03:37:32.187Z,2.57
2018-10-02T03:40:00.848Z,1.83
2018-10-02T03:42:29.428Z,2.40
2018-10-02T03:44:57.994Z,1.73
2018-10-02T03:47:26.659Z,2.23
2018-10-02T03:49:55.206Z,1.80
2018-10-02T03:52:23.770Z,1.90
2018-10-02T03:54:52.312Z,1.57
2018-10-02T03:57:20.858Z,1.83
2018-10-02T03:59:49.544Z,1.87
2018-10-02T04:02:18.091Z,1.70
2018-10-02T04:04:46.780Z,2.00
2018-10-02T04:07:15.330Z,2.10
2018-10-02T04:09:43.856Z,1.70
2018-10-02T04:12:12.392Z,1.73
2018-10-02T04:14:40.928Z,1.70
2018-10-02T04:17:09.460Z,2.40
2018-10-02T04:19:38.030Z,2.33
2018-10-02T04:22:06.821Z,2.37
2018-10-02T04:24:35.408Z,1.90
2018-10-02T04:27:04.140Z,1.90
2018-10-02T04:29:32.911Z,2.00
2018-10-02T04:32:01.480Z,1.93
2018-10-02T04:34:30.018Z,2.13
2018-10-02T04:36:58.561Z,1.60
2018-10-02T04:39:27.103Z,2.07
2018-10-02T04:41:55.664Z,2.20
2018-10-02T04:44:24.202Z,1.83
2018-10-02T04:46:52.798Z,2.20
2018-10-02T04:49:21.316Z,2.17
2018-10-02T04:51:50.147Z,1.63
2018-10-02T04:54:18.698Z,1.80
2018-10-02T04:56:47.283Z,2.23
2018-10-02T04:59:15.827Z,1.90
2018-10-02T05:01:44.773Z,1.83
2018-10-02T05:04:13.551Z,1.70
2018-10-02T05:06:42.096Z,2.13
2018-10-02T05:09:11.252Z,1.60
2018-10-02T05:11:39.820Z,1.87
2018-10-02T05:14:08.472Z,2.73
2018-10-02T05:16:37.001Z,1.33
2018-10-02T05:19:05.664Z,1.60
2018-10-02T05:21:34.177Z,1.83
2018-10-02T05:24:02.698Z,1.83
2018-10-02T05:26:31.242Z,2.63
2018-10-02T05:28:59.924Z,1.67
2018-10-02T05:31:28.500Z,1.47
2018-10-02T05:33:57.047Z,1.87
2018-10-02T05:36:25.579Z,2.13
2018-10-02T05:38:54.097Z,2.17
2018-10-02T05:41:22.635Z,1.80
2018-10-02T05:43:51.169Z,1.80
2018-10-02T05:46:19.804Z,1.70
2018-10-02T05:48:48.392Z,2.00
2018-10-02T05:51:16.978Z,1.83
2018-10-02T05:53:45.544Z,2.30
2018-10-02T05:56:14.144Z,2.10
2018-10-02T05:58:42.685Z,1.73
2018-10-02T06:01:11.219Z,2.10
2018-10-02T06:03:39.775Z,2.00
2018-10-02T06:06:08.320Z,1.60
2018-10-02T06:08:36.883Z,2.00
2018-10-02T06:11:05.452Z,1.73
2018-10-02T06:13:40.513Z,2.20
2018-10-02T06:16:09.190Z,2.10
2018-10-02T06:18:37.728Z,2.17
2018-10-02T06:21:06.500Z,2.37
2018-10-02T06:23:35.058Z,2.00
2018-10-02T06:26:03.645Z,1.90
2018-10-02T06:28:32.249Z,2.33
2018-10-02T06:31:00.836Z,1.70
2018-10-02T06:33:29.507Z,1.70
2018-10-02T06:36:04.956Z,2.33
2018-10-02T06:38:33.667Z,1.97
2018-10-02T06:41:02.134Z,2.23
2018-10-02T06:43:31.205Z,2.17
2018-10-02T06:45:59.674Z,2.07
2018-10-02T06:48:28.206Z,1.70
2018-10-02T06:50:57.026Z,1.77
2018-10-02T06:53:25.568Z,1.50
2018-10-02T06:55:54.084Z,1.83
2018-10-02T06:58:25.546Z,2.00
2018-10-02T07:00:54.058Z,1.67
2018-10-02T07:03:22.632Z,1.90
2018-10-02T07:05:51.188Z,1.80
2018-10-02T07:08:19.709Z,1.70
2018-10-02T07:10:48.315Z,1.50
2018-10-02T07:13:16.929Z,1.60
2018-10-02T07:15:45.466Z,1.77
2018-10-02T07:18:14.004Z,1.70
2018-10-02T07:20:42.628Z,1.63
2018-10-02T07:23:11.092Z,1.90
2018-10-02T07:25:39.664Z,1.90
2018-10-02T07:28:08.228Z,1.63
2018-10-02T07:30:36.794Z,1.33
2018-10-02T07:33:05.462Z,1.53
2018-10-02T07:35:34.092Z,1.67
2018-10-02T07:38:02.619Z,1.80
2018-10-02T07:40:31.172Z,1.97
2018-10-02T07:42:59.704Z,1.73
2018-10-02T07:45:28.252Z,1.70
2018-10-02T07:47:56.862Z,1.90
2018-10-02T07:50:25.396Z,1.87
2018-10-02T07:52:53.912Z,1.53
2018-10-02T07:55:22.503Z,2.10
2018-10-02T07:57:51.012Z,1.60
2018-10-02T08:00:19.557Z,2.00
2018-10-02T08:02:48.120Z,2.10
2018-10-02T08:05:16.747Z,2.23
2018-10-02T08:07:45.235Z,1.40
2018-10-02T08:10:13.764Z,1.80
2018-10-02T08:12:42.298Z,1.73
2018-10-02T08:15:10.859Z,1.93
2018-10-02T08:17:39.499Z,1.60
2018-10-02T08:20:08.169Z,1.70
2018-10-02T08:22:36.629Z,1.80
2018-10-02T08:25:05.250Z,1.80
2018-10-02T08:27:34.288Z,1.80
2018-10-02T08:30:02.968Z,1.50
2018-10-02T08:32:31.667Z,1.20
2018-10-02T08:35:00.223Z,1.67
2018-10-02T08:37:28.759Z,1.90
2018-10-02T08:39:57.526Z,1.33
2018-10-02T08:42:26.109Z,1.47
2018-10-02T08:44:54.695Z,1.50
2018-10-02T08:47:23.241Z,1.40
2018-10-02T08:49:51.786Z,1.47
2018-10-02T08:52:20.405Z,1.40
2018-10-02T08:54:48.917Z,1.30
2018-10-02T08:57:17.454Z,1.30
2018-10-02T08:59:46.019Z,1.57
2018-10-02T09:02:14.579Z,1.30
2018-10-02T09:04:43.117Z,1.60
2018-10-02T09:07:11.636Z,1.90
2018-10-02T09:09:40.218Z,1.20
2018-10-02T09:12:08.783Z,1.23
2018-10-02T09:14:37.337Z,1.20
2018-10-02T09:17:05.883Z,1.53
2018-10-02T09:19:34.844Z,1.50
2018-10-02T09:22:03.520Z,1.40
2018-10-02T09:24:32.003Z,1.40
2018-10-02T09:27:00.500Z,1.10
2018-10-02T09:29:29.047Z,1.23
2018-10-02T09:32:02.984Z,1.53
2018-10-02T09:34:37.936Z,1.17
2018-10-02T09:37:11.982Z,1.10
2018-10-02T09:39:46.034Z,1.33
2018-10-02T09:42:19.910Z,1.00
2018-10-02T09:44:48.580Z,1.10
2018-10-02T09:47:17.164Z,1.13
2018-10-02T09:49:45.718Z,1.17
2018-10-02T09:52:14.272Z,1.20
2018-10-02T09:54:42.837Z,1.63
2018-10-02T09:57:11.360Z,0.93
2018-10-02T09:59:39.994Z,1.20
2018-10-02T10:02:13.760Z,1.37
2018-10-02T10:04:42.416Z,1.30
2018-10-02T10:07:10.950Z,1.60
2018-10-02T10:09:39.511Z,1.20
2018-10-02T10:12:08.047Z,1.30
2018-10-02T10:14:36.605Z,1.27
2018-10-02T10:17:05.206Z,1.37
2018-10-02T10:19:33.916Z,1.50
2018-10-02T10:22:02.479Z,1.17
2018-10-02T10:24:31.064Z,1.60
2018-10-02T10:26:59.585Z,1.83
2018-10-02T10:29:28.134Z,1.70
2018-10-02T10:31:56.678Z,1.63
2018-10-02T10:34:25.261Z,1.60
2018-10-02T10:36:53.874Z,1.20
2018-10-02T10:39:22.480Z,1.40
2018-10-02T10:41:51.040Z,1.10
2018-10-02T10:44:19.575Z,1.30
2018-10-02T10:46:48.130Z,1.40
2018-10-02T10:49:16.697Z,1.20
2018-10-02T10:51:45.271Z,1.23
2018-10-02T10:54:13.842Z,1.30
2018-10-02T10:56:42.377Z,1.30
2018-10-02T10:59:10.976Z,1.67
2018-10-02T11:01:39.519Z,1.70
2018-10-02T11:04:08.183Z,1.50
2018-10-02T11:06:36.739Z,1.50
2018-10-02T11:09:07.959Z,1.87
2018-10-02T11:11:36.563Z,1.77
2018-10-02T11:14:05.364Z,1.83
2018-10-02T11:16:33.886Z,1.57
2018-10-02T11:19:02.418Z,1.90
2018-10-02T11:21:30.956Z,1.77
2018-10-02T11:23:59.679Z,2.10
2018-10-02T11:26:28.278Z,1.90
2018-10-02T11:28:56.838Z,2.10
2018-10-02T11:31:25.452Z,2.13
2018-10-02T11:33:53.931Z,2.50
2018-10-02T11:36:22.496Z,2.00
2018-10-02T11:38:51.024Z,2.40
2018-10-02T11:41:19.629Z,2.53
2018-10-02T11:43:48.353Z,2.40
2018-10-02T11:46:16.789Z,2.20
2018-10-02T11:48:45.344Z,2.40
2018-10-02T11:51:13.940Z,2.20
2018-10-02T11:53:42.504Z,2.43
2018-10-02T11:56:11.045Z,2.40
2018-10-02T11:58:39.601Z,2.60
2018-10-02T12:01:08.364Z,2.60
2018-10-02T12:03:37.022Z,2.10
2018-10-02T12:06:05.562Z,2.50
2018-10-02T12:08:34.140Z,2.67
2018-10-02T12:11:02.690Z,2.30
2018-10-02T12:13:31.448Z,2.30
2018-10-02T12:15:59.959Z,2.20
2018-10-02T12:18:29.239Z,2.03
2018-10-02T12:20:57.793Z,2.00
2018-10-02T12:23:26.382Z,1.90
2018-10-02T12:25:54.892Z,2.17
2018-10-02T12:28:23.412Z,1.93
2018-10-02T12:30:52.052Z,2.57
2018-10-02T12:33:20.584Z,1.80
2018-10-02T12:35:49.129Z,2.00
2018-10-02T12:38:17.675Z,2.07
2018-10-02T12:40:46.345Z,1.90
2018-10-02T12:43:15.002Z,1.70
2018-10-02T12:45:43.879Z,1.60
2018-10-02T12:48:12.432Z,1.77
2018-10-02T12:50:41.058Z,1.67
2018-10-02T12:53:09.746Z,2.17
2018-10-02T12:55:38.384Z,1.80
2018-10-02T12:58:07.203Z,2.10
2018-10-02T13:00:35.797Z,1.90
2018-10-02T13:03:04.357Z,1.80
2018-10-02T13:05:32.889Z,1.50
2018-10-02T13:08:01.396Z,1.90
2018-10-02T13:10:29.972Z,1.70
2018-10-02T13:12:58.557Z,1.63
2018-10-02T13:15:27.115Z,2.10
2018-10-02T13:17:55.673Z,1.93
2018-10-02T13:20:24.239Z,2.17
2018-10-02T13:22:52.854Z,2.30
2018-10-02T13:25:21.508Z,2.00
2018-10-02T13:27:50.034Z,2.10
2018-10-02T13:30:18.548Z,2.20
2018-10-02T13:32:47.084Z,2.00
2018-10-02T13:35:15.699Z,1.87
2018-10-02T13:37:44.294Z,2.00
2018-10-02T13:40:12.835Z,2.10
2018-10-02T13:42:41.488Z,2.30
2018-10-02T13:45:10.059Z,2.13
2018-10-02T13:47:38.587Z,2.10
2018-10-02T13:50:07.189Z,2.10
2018-10-02T13:52:35.737Z,2.10
2018-10-02T13:55:04.283Z,1.80
2018-10-02T13:57:32.840Z,1.80
2018-10-02T14:00:01.560Z,2.17
2018-10-02T14:02:30.106Z,1.83
2018-10-02T14:04:58.705Z,1.97
2018-10-02T14:07:27.314Z,2.40
2018-10-02T14:09:55.865Z,1.93
2018-10-02T14:12:24.502Z,1.80
2018-10-02T14:14:53.058Z,2.50
2018-10-02T14:17:21.625Z,1.90
2018-10-02T14:19:50.250Z,1.93
2018-10-02T14:22:18.820Z,1.90
2018-10-02T14:24:47.397Z,2.00
2018-10-02T14:27:15.942Z,1.93
2018-10-02T14:29:44.524Z,1.80
2018-10-02T14:32:13.214Z,1.90
2018-10-02T14:34:41.796Z,2.20
2018-10-02T14:37:10.352Z,2.37
2018-10-02T14:39:39.817Z,1.83
2018-10-02T14:42:08.347Z,1.80
2018-10-02T14:44:36.908Z,2.10
2018-10-02T14:47:05.473Z,2.43
2018-10-02T14:49:34.184Z,2.10
2018-10-02T14:52:02.659Z,2.20
2018-10-02T14:54:31.215Z,2.20
2018-10-02T14:56:59.743Z,2.60
2018-10-02T14:59:28.334Z,2.40
2018-10-02T15:01:56.935Z,2.30
2018-10-02T15:04:25.514Z,2.20
2018-10-02T15:06:54.045Z,2.33
2018-10-02T15:09:22.600Z,2.13
2018-10-02T15:11:51.139Z,1.73
2018-10-02T15:14:19.688Z,1.60
2018-10-02T15:16:48.268Z,1.60
2018-10-02T15:19:16.872Z,1.60
2018-10-02T15:21:45.399Z,1.47
2018-10-02T15:24:13.969Z,1.60
2018-10-02T15:26:42.523Z,1.77
2018-10-02T15:29:11.086Z,1.80
2018-10-02T15:31:40.108Z,1.60
2018-10-02T15:34:08.666Z,1.63
2018-10-02T15:36:37.268Z,1.87
2018-10-02T15:39:08.186Z,1.83
2018-10-02T15:41:37.448Z,2.23
2018-10-02T15:44:06.196Z,2.00
2018-10-02T15:46:34.796Z,2.37
2018-10-02T15:49:03.376Z,2.37
2018-10-02T15:51:31.947Z,2.17
2018-10-02T15:54:00.585Z,1.83
2018-10-02T15:56:29.166Z,1.80
2018-10-02T15:58:57.773Z,2.07
2018-10-02T16:01:26.303Z,2.00
2018-10-02T16:03:54.881Z,2.43
2018-10-02T16:06:23.423Z,2.30
2018-10-02T16:08:51.977Z,1.80
2018-10-02T16:11:20.662Z,2.10
2018-10-02T16:13:49.253Z,1.80
2018-10-02T16:16:17.819Z,1.70
2018-10-02T16:18:46.347Z,2.23
2018-10-02T16:21:14.893Z,1.70
2018-10-02T16:23:43.415Z,1.77
2018-10-02T16:26:11.962Z,1.53
2018-10-02T16:28:40.524Z,1.70
2018-10-02T16:31:09.108Z,1.90
2018-10-02T16:33:37.659Z,1.70
2018-10-02T16:36:06.243Z,1.67
2018-10-02T16:38:34.861Z,1.80
2018-10-02T16:41:03.416Z,1.83
2018-10-02T16:43:31.944Z,1.50
2018-10-02T16:46:00.468Z,2.10
2018-10-02T16:48:29.020Z,2.33
2018-10-02T16:50:57.577Z,2.23
2018-10-02T16:53:26.148Z,2.10
2018-10-02T16:55:54.951Z,2.40
2018-10-02T16:58:23.843Z,2.33
2018-10-02T17:00:52.591Z,2.77
2018-10-02T17:03:21.456Z,2.30
2018-10-02T17:05:50.032Z,1.90
2018-10-02T17:08:19.050Z,1.73
2018-10-02T17:10:47.855Z,2.37
2018-10-02T17:13:16.527Z,2.10
2018-10-02T17:15:45.347Z,2.57
2018-10-02T17:18:14.003Z,2.33
2018-10-02T17:20:42.661Z,2.40
2018-10-02T17:23:11.392Z,2.40
2018-10-02T17:25:40.748Z,1.87
2018-10-02T17:28:09.312Z,2.80
2018-10-02T17:30:37.848Z,1.90
2018-10-02T17:33:06.513Z,3.00
2018-10-02T17:35:35.441Z,2.60
2018-10-02T17:38:04.095Z,2.10
2018-10-02T17:40:33.939Z,2.30
2018-10-02T17:43:02.768Z,2.90
2018-10-02T17:45:31.609Z,2.43
2018-10-02T17:48:00.202Z,2.60
2018-10-02T17:50:28.969Z,2.77
2018-10-02T17:52:58.095Z,2.70
2018-10-02T17:55:26.825Z,2.90
2018-10-02T17:57:55.663Z,2.80
2018-10-02T18:00:24.249Z,2.77
2018-10-02T18:02:52.809Z,2.97
2018-10-02T18:05:21.546Z,2.73
2018-10-02T18:07:50.133Z,2.77
2018-10-02T18:10:18.718Z,2.73
2018-10-02T18:12:47.346Z,2.60
2018-10-02T18:15:16.172Z,3.03
2018-10-02T18:17:44.742Z,3.00
2018-10-02T18:20:13.315Z,2.70
2018-10-02T18:22:41.874Z,2.70
2018-10-02T18:25:10.794Z,2.73
2018-10-02T18:27:40.081Z,2.73
2018-10-02T18:30:09.521Z,2.30
2018-10-02T18:32:38.301Z,2.20
2018-10-02T18:35:07.275Z,2.80
2018-10-02T18:37:36.387Z,2.73
2018-10-02T18:40:05.502Z,2.80
2018-10-02T18:42:34.546Z,2.50
2018-10-02T18:45:03.564Z,2.57
2018-10-02T18:47:32.654Z,2.97
2018-10-02T18:50:01.720Z,2.63
2018-10-02T18:52:30.844Z,2.90
2018-10-02T18:54:59.744Z,2.70
2018-10-02T18:57:28.604Z,2.50
2018-10-02T18:59:57.935Z,3.10
2018-10-02T19:02:27.258Z,2.50
2018-10-02T19:04:55.837Z,2.90
2018-10-02T19:07:24.476Z,2.50
2018-10-02T19:09:53.385Z,2.53
2018-10-02T19:12:29.373Z,3.33
2018-10-02T19:14:57.989Z,2.83
2018-10-02T19:17:26.677Z,2.77
2018-10-02T19:20:03.024Z,2.80
2018-10-02T19:22:32.466Z,2.70
2018-10-02T19:25:06.631Z,3.00
2018-10-02T19:27:35.219Z,3.27
2018-10-02T19:31:08.412Z,2.90
2018-10-02T19:33:36.983Z,2.83
2018-10-02T19:36:05.560Z,2.30
2018-10-02T19:38:39.400Z,2.67
2018-10-02T19:41:08.053Z,2.73
2018-10-02T19:43:36.669Z,2.60
2018-10-02T19:46:10.724Z,2.50
2018-10-02T19:48:39.492Z,2.93
2018-10-02T19:51:13.338Z,2.70
2018-10-02T19:53:42.632Z,2.77
2018-10-02T19:56:11.289Z,2.73
2018-10-02T19:58:40.349Z,2.50
2018-10-02T20:01:09.377Z,2.60
2018-10-02T20:03:38.052Z,2.70
2018-10-02T20:06:07.708Z,2.60
2018-10-02T20:08:36.260Z,2.53
2018-10-02T20:11:04.850Z,2.50
2018-10-02T20:13:33.583Z,3.03
2018-10-02T20:16:02.182Z,3.13
2018-10-02T20:18:30.735Z,2.90
2018-10-02T20:20:59.355Z,2.17
2018-10-02T20:23:28.412Z,2.03
2018-10-02T20:25:57.019Z,2.60
2018-10-02T20:28:25.598Z,2.30
2018-10-02T20:30:54.168Z,2.07
2018-10-02T20:33:22.764Z,3.00
2018-10-02T20:35:51.318Z,2.10
2018-10-02T20:38:19.859Z,2.30
2018-10-02T20:40:49.795Z,1.97
2018-10-02T20:43:18.451Z,1.80
2018-10-02T20:45:47.115Z,2.00
2018-10-02T20:48:15.674Z,2.07
2018-10-02T20:50:44.270Z,2.00
2018-10-02T20:53:13.024Z,2.57
2018-10-02T20:55:41.840Z,2.70
2018-10-02T20:58:10.466Z,2.23
2018-10-02T21:00:39.205Z,2.73
2018-10-02T21:03:07.753Z,2.70
2018-10-02T21:05:36.357Z,2.27
2018-10-02T21:08:04.961Z,2.27
2018-10-02T21:10:33.563Z,2.50
2018-10-02T21:13:02.120Z,2.53
2018-10-02T21:15:30.771Z,3.10
2018-10-02T21:17:59.234Z,2.60
2018-10-02T21:20:27.776Z,2.33
2018-10-02T21:22:56.368Z,3.17
2018-10-02T21:25:24.922Z,2.87
2018-10-02T21:27:53.465Z,2.93
2018-10-02T21:30:22.029Z,2.80
2018-10-02T21:32:50.580Z,2.90
2018-10-02T21:35:19.159Z,2.63
2018-10-02T21:37:47.712Z,2.70
2018-10-02T21:40:16.332Z,2.67
2018-10-02T21:42:44.840Z,2.77
2018-10-02T21:45:13.398Z,2.87
2018-10-02T21:47:42.578Z,3.03
2018-10-02T21:50:11.118Z,3.03
2018-10-02T21:52:39.675Z,3.20
2018-10-02T21:55:08.243Z,2.90
2018-10-02T21:57:36.795Z,2.67
2018-10-02T22:00:06.469Z,2.50
2018-10-02T22:02:35.045Z,2.83
2018-10-02T22:05:03.595Z,2.80
2018-10-02T22:07:32.187Z,2.93
2018-10-02T22:10:00.852Z,2.80
2018-10-02T22:12:29.425Z,2.40
2018-10-02T22:14:57.996Z,2.70
2018-10-02T22:17:26.569Z,2.90
2018-10-02T22:19:55.087Z,2.83
2018-10-02T22:22:23.665Z,2.53
2018-10-02T22:24:52.233Z,2.50
2018-10-02T22:27:20.795Z,2.80
2018-10-02T22:29:49.677Z,2.90
2018-10-02T22:32:18.200Z,2.80
2018-10-02T22:34:46.760Z,2.77
2018-10-02T22:37:15.295Z,3.17
2018-10-02T22:39:44.226Z,3.27
2018-10-02T22:42:12.768Z,3.20
2018-10-02T22:44:41.338Z,1.70
2018-10-02T22:47:09.881Z,1.13
2018-10-02T22:49:38.460Z,1.67
2018-10-02T22:52:07.076Z,1.43
2018-10-02T22:54:35.652Z,2.23
2018-10-02T22:57:04.179Z,1.77
2018-10-02T22:59:32.714Z,2.00
2018-10-02T23:02:01.329Z,2.00
2018-10-02T23:04:29.900Z,1.97
2018-10-02T23:06:58.466Z,2.43
2018-10-02T23:09:27.008Z,2.77
2018-10-02T23:11:55.580Z,2.00
2018-10-02T23:14:24.108Z,1.90
2018-10-02T23:16:52.645Z,2.10
2018-10-02T23:19:21.211Z,1.70
2018-10-02T23:21:49.781Z,2.20
2018-10-02T23:24:18.338Z,1.90
2018-10-02T23:26:46.881Z,1.60
2018-10-02T23:29:15.420Z,1.77
2018-10-02T23:31:44.569Z,2.40
2018-10-02T23:34:13.123Z,1.60
2018-10-02T23:36:41.723Z,1.73
2018-10-02T23:39:10.599Z,1.80
2018-10-02T23:41:39.397Z,1.80
2018-10-02T23:44:07.922Z,2.00
2018-10-02T23:46:36.476Z,1.67
2018-10-02T23:49:05.260Z,2.17
2018-10-02T23:51:33.793Z,2.37
2018-10-02T23:54:02.367Z,1.67
2018-10-02T23:56:30.935Z,1.57
2018-10-02T23:58:59.462Z,1.87
